sensor_id;sensor_type;location;lat;lon;timestamp;temperature;humidity
50690;DHT22;54375;48.298;11.238;2022-12-31T00:13:38;11.00;82.50
50690;DHT22;54375;48.298;11.238;2022-12-31T00:33:41;11.00;81.60
50690;DHT22;54375;48.298;11.238;2022-12-31T00:53:45;11.20;79.50
50690;DHT22;54375;48.298;11.238;2022-12-31T01:13:51;11.50;79.20
50690;DHT22;54375;48.298;11.238;2022-12-31T01:33:53;11.70;79.40
50690;DHT22;54375;48.298;11.238;2022-12-31T01:53:57;11.60;79.90
50690;DHT22;54375;48.298;11.238;2022-12-31T02:14:01;11.60;80.30
50690;DHT22;54375;48.298;11.238;2022-12-31T02:34:07;11.50;80.40
50690;DHT22;54375;48.298;11.238;2022-12-31T02:54:20;11.50;81.20
50690;DHT22;54375;48.298;11.238;2022-12-31T03:14:27;11.40;81.50
50690;DHT22;54375;48.298;11.238;2022-12-31T03:34:30;12.00;78.90
50690;DHT22;54375;48.298;11.238;2022-12-31T03:54:32;12.20;77.70
50690;DHT22;54375;48.298;11.238;2022-12-31T04:14:35;12.10;77.90
50690;DHT22;54375;48.298;11.238;2022-12-31T04:34:37;12.90;74.20
50690;DHT22;54375;48.298;11.238;2022-12-31T04:54:39;13.10;72.80
50690;DHT22;54375;48.298;11.238;2022-12-31T05:14:42;13.20;72.20
50690;DHT22;54375;48.298;11.238;2022-12-31T05:34:44;13.30;73.10
50690;DHT22;54375;48.298;11.238;2022-12-31T05:54:47;13.30;73.20
50690;DHT22;54375;48.298;11.238;2022-12-31T06:14:49;13.20;73.70
50690;DHT22;54375;48.298;11.238;2022-12-31T06:34:51;13.00;74.30
50690;DHT22;54375;48.298;11.238;2022-12-31T06:54:54;12.70;76.20
50690;DHT22;54375;48.298;11.238;2022-12-31T07:15:01;12.40;76.90
50690;DHT22;54375;48.298;11.238;2022-12-31T07:35:10;12.10;77.60
50690;DHT22;54375;48.298;11.238;2022-12-31T07:55:15;11.90;78.60
50690;DHT22;54375;48.298;11.238;2022-12-31T08:15:18;12.10;77.50
50690;DHT22;54375;48.298;11.238;2022-12-31T08:35:29;12.20;77.40
50690;DHT22;54375;48.298;11.238;2022-12-31T08:55:34;12.50;77.30
50690;DHT22;54375;48.298;11.238;2022-12-31T09:15:40;12.70;77.10
50690;DHT22;54375;48.298;11.238;2022-12-31T09:35:48;12.80;77.30
50690;DHT22;54375;48.298;11.238;2022-12-31T09:55:56;13.30;78.50
50690;DHT22;54375;48.298;11.238;2022-12-31T10:16:18;13.80;77.10
50690;DHT22;54375;48.298;11.238;2022-12-31T10:36:43;14.70;75.00
50690;DHT22;54375;48.298;11.238;2022-12-31T10:57:12;14.50;75.40
50690;DHT22;54375;48.298;11.238;2022-12-31T11:17:25;14.40;76.30
50690;DHT22;54375;48.298;11.238;2022-12-31T11:37:41;14.60;75.70
50690;DHT22;54375;48.298;11.238;2022-12-31T11:57:48;15.50;72.30
50690;DHT22;54375;48.298;11.238;2022-12-31T12:17:55;16.10;67.00
50690;DHT22;54375;48.298;11.238;2022-12-31T12:38:03;16.60;62.60
50690;DHT22;54375;48.298;11.238;2022-12-31T12:58:12;17.20;61.10
50690;DHT22;54375;48.298;11.238;2022-12-31T13:18:26;17.80;58.20
50690;DHT22;54375;48.298;11.238;2022-12-31T13:38:34;17.70;57.10
50690;DHT22;54375;48.298;11.238;2022-12-31T13:58:42;17.40;57.60
50690;DHT22;54375;48.298;11.238;2022-12-31T14:18:50;16.80;60.20
50690;DHT22;54375;48.298;11.238;2022-12-31T14:39:07;16.30;63.40
50690;DHT22;54375;48.298;11.238;2022-12-31T14:59:24;15.60;67.40
50690;DHT22;54375;48.298;11.238;2022-12-31T15:40:17;13.50;72.20
50690;DHT22;54375;48.298;11.238;2022-12-31T16:00:22;12.60;75.20
50690;DHT22;54375;48.298;11.238;2022-12-31T16:20:26;11.70;77.30
50690;DHT22;54375;48.298;11.238;2022-12-31T16:40:29;11.10;79.70
50690;DHT22;54375;48.298;11.238;2022-12-31T17:00:31;10.50;80.70
50690;DHT22;54375;48.298;11.238;2022-12-31T17:20:34;10.10;82.50
50690;DHT22;54375;48.298;11.238;2022-12-31T17:40:37;9.80;84.90
50690;DHT22;54375;48.298;11.238;2022-12-31T18:00:40;9.70;83.90
50690;DHT22;54375;48.298;11.238;2022-12-31T18:20:42;9.70;84.10
50690;DHT22;54375;48.298;11.238;2022-12-31T18:40:49;9.50;84.40
50690;DHT22;54375;48.298;11.238;2022-12-31T19:00:53;8.90;84.80
50690;DHT22;54375;48.298;11.238;2022-12-31T19:20:55;8.50;87.20
50690;DHT22;54375;48.298;11.238;2022-12-31T19:40:58;8.40;89.00
50690;DHT22;54375;48.298;11.238;2022-12-31T20:01:00;8.00;88.30
50690;DHT22;54375;48.298;11.238;2022-12-31T20:21:02;8.00;89.90
50690;DHT22;54375;48.298;11.238;2022-12-31T20:41:07;8.00;89.30
50690;DHT22;54375;48.298;11.238;2022-12-31T21:01:10;8.10;88.30
50690;DHT22;54375;48.298;11.238;2022-12-31T21:21:13;7.80;89.00
50690;DHT22;54375;48.298;11.238;2022-12-31T21:41:15;7.90;87.60
50690;DHT22;54375;48.298;11.238;2022-12-31T22:01:19;7.50;88.00
50690;DHT22;54375;48.298;11.238;2022-12-31T22:21:24;7.00;89.60
50690;DHT22;54375;48.298;11.238;2022-12-31T22:41:26;6.80;90.20
50690;DHT22;54375;48.298;11.238;2022-12-31T23:01:29;6.80;90.50
50690;DHT22;54375;48.298;11.238;2022-12-31T23:21:31;6.90;90.80
50690;DHT22;54375;48.298;11.238;2022-12-31T23:41:33;6.80;91.30
